Time;durP1;ratioP1;P1;durP2;ratioP2;P2;SDS_P1;SDS_P2;PMS_P1;PMS_P2;Temp;Humidity;BMP_temperature;BMP_pressure;BME280_temperature;BME280_humidity;BME280_pressure;Samples;Min_cycle;Max_cycle;Signal;HPM_P1;HPM_P2
2021/04/29 00:01:35;;;;;;;6.50;5.57;;;13.50;99.90;;;;;;5114597;28;20062;-70
2021/04/29 00:04:00;;;;;;;5.63;5.10;;;13.50;99.90;;;;;;5115526;28;20023;-70
2021/04/29 00:06:26;;;;;;;8.88;5.38;;;13.50;99.90;;;;;;5115491;28;20020;-70
2021/04/29 00:08:51;;;;;;;6.05;5.00;;;13.50;99.90;;;;;;5115735;28;20031;-70
2021/04/29 00:11:17;;;;;;;8.35;5.13;;;13.40;99.90;;;;;;5115370;28;20028;-71
2021/04/29 00:13:42;;;;;;;8.88;5.38;;;13.40;99.90;;;;;;5115639;28;20024;-70
2021/04/29 00:16:08;;;;;;;6.45;5.43;;;13.30;99.90;;;;;;5115583;28;20028;-70
2021/04/29 00:18:34;;;;;;;6.50;4.75;;;13.30;99.90;;;;;;5115532;28;20035;-70
2021/04/29 00:20:59;;;;;;;5.80;5.18;;;13.20;99.90;;;;;;5115230;28;20065;-70
2021/04/29 00:23:27;;;;;;;7.15;5.07;;;13.20;99.90;;;;;;5114358;28;20020;-70
2021/04/29 00:25:53;;;;;;;7.90;5.53;;;13.10;99.90;;;;;;5115133;28;20124;-70
2021/04/29 00:28:19;;;;;;;6.07;5.07;;;12.90;99.90;;;;;;5115351;28;20578;-71
2021/04/29 00:30:46;;;;;;;5.45;4.93;;;12.90;99.90;;;;;;5115545;28;20034;-70
2021/04/29 00:33:11;;;;;;;7.30;5.53;;;12.80;99.90;;;;;;5113943;28;20055;-70
2021/04/29 00:35:37;;;;;;;6.05;5.30;;;12.80;99.90;;;;;;5115151;28;20085;-71
2021/04/29 00:38:03;;;;;;;8.32;5.13;;;12.80;99.90;;;;;;5115096;28;20035;-71
2021/04/29 00:40:29;;;;;;;6.97;5.63;;;12.80;99.90;;;;;;5114547;28;20054;-70
2021/04/29 00:42:54;;;;;;;6.30;5.70;;;12.90;99.90;;;;;;5115080;28;20026;-70
2021/04/29 00:45:20;;;;;;;6.28;5.50;;;12.90;99.90;;;;;;5115018;28;20011;-70
2021/04/29 00:47:49;;;;;;;6.18;5.57;;;12.90;99.90;;;;;;5114704;28;20035;-71
2021/04/29 00:50:15;;;;;;;7.47;5.80;;;12.90;99.90;;;;;;5114967;28;20379;-70
2021/04/29 00:52:42;;;;;;;7.57;5.63;;;12.80;99.90;;;;;;5114887;28;20015;-71
2021/04/29 00:55:08;;;;;;;6.38;5.78;;;12.90;99.90;;;;;;5114819;28;20024;-71
2021/04/29 00:57:34;;;;;;;8.48;5.40;;;12.80;99.90;;;;;;5114835;28;20052;-71
2021/04/29 01:00:00;;;;;;;8.07;5.50;;;12.80;99.90;;;;;;5113542;28;20027;-70
2021/04/29 01:02:27;;;;;;;6.20;5.05;;;12.80;99.90;;;;;;5114744;28;20019;-71
2021/04/29 01:05:00;;;;;;;6.97;5.30;;;12.70;99.90;;;;;;5114016;28;20047;-71
2021/04/29 01:07:30;;;;;;;6.90;5.57;;;12.80;99.90;;;;;;5114680;28;20501;-71
2021/04/29 01:10:11;;;;;;;6.53;5.82;;;12.80;99.90;;;;;;5113923;28;20028;-70
2021/04/29 01:13:04;;;;;;;7.05;5.43;;;12.70;99.90;;;;;;5113101;28;20034;-70
2021/04/29 01:15:30;;;;;;;7.23;5.73;;;12.70;99.90;;;;;;5114216;28;20365;-71
2021/04/29 01:17:57;;;;;;;7.38;5.90;;;12.70;99.90;;;;;;5114477;28;20268;-71
2021/04/29 01:23:26;;;;;;;8.05;5.80;;;12.60;99.90;;;;;;5091792;27;20348;-71
2021/04/29 01:25:58;;;;;;;7.45;5.65;;;12.60;99.90;;;;;;5089850;28;20477;-71
2021/04/29 01:28:27;;;;;;;8.52;6.07;;;12.60;99.90;;;;;;5091237;28;20112;-71
2021/04/29 01:30:53;;;;;;;6.55;5.70;;;12.60;99.90;;;;;;5091169;28;20017;-71
2021/04/29 01:33:20;;;;;;;7.65;6.07;;;12.60;99.90;;;;;;5090846;28;20028;-71
2021/04/29 01:35:46;;;;;;;8.18;5.95;;;12.50;99.90;;;;;;5091087;28;20020;-71
2021/04/29 01:38:12;;;;;;;9.02;6.28;;;12.50;99.90;;;;;;5090790;28;20053;-70
2021/04/29 01:40:39;;;;;;;7.00;6.28;;;12.50;99.90;;;;;;5089836;28;20028;-71
2021/04/29 01:43:07;;;;;;;6.68;5.97;;;12.50;99.90;;;;;;5090899;28;20030;-71
2021/04/29 01:45:33;;;;;;;7.65;5.70;;;12.40;99.90;;;;;;5090899;28;20104;-70
2021/04/29 01:47:59;;;;;;;7.25;5.53;;;12.40;99.90;;;;;;5090840;28;20078;-71
2021/04/29 01:50:25;;;;;;;11.77;6.00;;;12.40;99.90;;;;;;5091061;28;20024;-71
2021/04/29 01:52:51;;;;;;;7.25;6.22;;;12.30;99.90;;;;;;5090470;28;20024;-71
2021/04/29 01:55:17;;;;;;;9.98;6.60;;;12.30;99.90;;;;;;5090689;28;20024;-71
2021/04/29 01:57:43;;;;;;;8.50;6.20;;;12.30;99.90;;;;;;5090697;28;20113;-71
2021/04/29 02:00:09;;;;;;;6.68;5.88;;;12.30;99.90;;;;;;5090613;28;20031;-70
2021/04/29 02:02:36;;;;;;;6.55;5.93;;;12.30;99.90;;;;;;5090531;28;20028;-71
2021/04/29 02:05:02;;;;;;;7.60;6.15;;;12.20;99.90;;;;;;5089837;28;20067;-71
2021/04/29 02:07:27;;;;;;;7.47;6.10;;;12.20;99.90;;;;;;5090468;28;20050;-70
2021/04/29 02:09:53;;;;;;;7.05;5.60;;;12.20;99.90;;;;;;5090216;28;20091;-70
2021/04/29 02:12:19;;;;;;;6.82;6.22;;;12.20;99.90;;;;;;5090152;28;20031;-71
2021/04/29 02:14:48;;;;;;;8.45;6.15;;;12.20;99.90;;;;;;5090394;28;20024;-71
2021/04/29 02:17:26;;;;;;;6.63;5.80;;;12.20;99.90;;;;;;5090283;28;20029;-71
2021/04/29 02:19:55;;;;;;;6.90;6.15;;;12.20;99.90;;;;;;5090275;28;20107;-71
2021/04/29 02:22:22;;;;;;;6.70;6.00;;;12.20;99.90;;;;;;5089755;28;20079;-71
2021/04/29 02:24:49;;;;;;;7.93;6.15;;;12.10;99.90;;;;;;5090154;28;20419;-70
2021/04/29 02:27:14;;;;;;;7.85;6.43;;;12.20;99.90;;;;;;5090125;28;20016;-70
2021/04/29 02:29:42;;;;;;;9.15;6.40;;;12.10;99.90;;;;;;5089794;28;20099;-70
2021/04/29 02:32:08;;;;;;;12.77;6.70;;;12.10;99.90;;;;;;5090023;28;20052;-70
2021/04/29 02:34:34;;;;;;;8.85;7.10;;;12.10;99.90;;;;;;5076390;28;20469;-70
2021/04/29 02:37:00;;;;;;;7.35;6.55;;;12.10;99.90;;;;;;5076715;28;20025;-71
2021/04/29 02:39:28;;;;;;;14.05;6.68;;;12.10;99.90;;;;;;5076121;28;20564;-71
2021/04/29 02:41:54;;;;;;;8.18;7.13;;;12.10;99.90;;;;;;5076318;28;20355;-71
2021/04/29 02:44:19;;;;;;;6.80;6.10;;;12.10;99.90;;;;;;5076334;28;20031;-71
2021/04/29 02:46:45;;;;;;;7.65;6.85;;;12.10;99.90;;;;;;5076007;28;20025;-71
2021/04/29 02:49:11;;;;;;;7.28;6.57;;;12.10;99.90;;;;;;5076235;28;20032;-71
2021/04/29 02:51:39;;;;;;;8.63;6.20;;;12.10;99.90;;;;;;5076152;28;20055;-71
2021/04/29 02:54:07;;;;;;;7.70;6.55;;;12.10;99.90;;;;;;5074618;28;20474;-71
2021/04/29 02:56:33;;;;;;;12.10;6.30;;;12.00;99.90;;;;;;5074968;28;20050;-71
2021/04/29 02:58:59;;;;;;;7.70;6.10;;;12.00;99.90;;;;;;5076060;28;20028;-71
2021/04/29 03:01:25;;;;;;;7.40;6.25;;;12.00;99.90;;;;;;5075666;28;20025;-71
2021/04/29 03:03:51;;;;;;;8.90;6.65;;;12.00;99.90;;;;;;5075987;28;20521;-71
2021/04/29 03:06:17;;;;;;;8.07;6.75;;;12.00;99.90;;;;;;5074710;28;20130;-71
2021/04/29 03:08:42;;;;;;;7.18;6.47;;;11.90;99.90;;;;;;5075607;28;20032;-71
2021/04/29 03:11:08;;;;;;;9.50;6.90;;;12.00;99.90;;;;;;5075778;28;20029;-71
2021/04/29 03:13:33;;;;;;;9.07;6.63;;;11.90;99.90;;;;;;5075785;28;20032;-71
2021/04/29 03:15:59;;;;;;;9.98;6.70;;;11.90;99.90;;;;;;5074249;28;20397;-71
2021/04/29 03:18:25;;;;;;;7.93;6.78;;;11.90;99.90;;;;;;5074720;28;20025;-71
2021/04/29 03:20:50;;;;;;;8.60;6.85;;;11.90;99.90;;;;;;5075357;28;20063;-71
2021/04/29 03:23:16;;;;;;;10.30;6.95;;;11.90;99.90;;;;;;5075306;28;20061;-71
2021/04/29 03:25:44;;;;;;;8.70;7.07;;;11.90;99.90;;;;;;5074119;28;20021;-71
2021/04/29 03:28:09;;;;;;;9.88;7.40;;;11.80;99.90;;;;;;5075442;28;20021;-71
2021/04/29 03:30:35;;;;;;;10.57;7.32;;;11.80;99.90;;;;;;5075149;28;20031;-71
2021/04/29 03:33:00;;;;;;;9.80;6.70;;;11.80;99.90;;;;;;5075110;28;20020;-71
2021/04/29 03:35:26;;;;;;;9.07;6.70;;;11.80;99.90;;;;;;5074078;28;20033;-71
2021/04/29 03:37:52;;;;;;;15.30;9.52;;;11.80;99.90;;;;;;5074933;28;20107;-71
2021/04/29 03:40:17;;;;;;;9.63;7.68;;;11.70;99.90;;;;;;5075217;28;20103;-71
2021/04/29 03:42:43;;;;;;;9.10;7.18;;;11.70;99.90;;;;;;5075067;28;20427;-71
2021/04/29 03:45:09;;;;;;;11.57;7.88;;;11.70;99.90;;;;;;5073870;28;20551;-71
2021/04/29 03:47:35;;;;;;;15.43;8.23;;;11.70;99.90;;;;;;5074810;28;20024;-71
2021/04/29 03:50:00;;;;;;;10.00;8.02;;;11.70;99.90;;;;;;5075038;28;20024;-71
2021/04/29 03:52:26;;;;;;;13.77;7.50;;;11.70;99.90;;;;;;5074966;28;20032;-71
2021/04/29 03:54:52;;;;;;;8.82;7.95;;;11.70;99.90;;;;;;5074951;28;20029;-71
2021/04/29 03:57:17;;;;;;;11.27;8.57;;;11.70;99.90;;;;;;5074852;28;20442;-71
2021/04/29 03:59:43;;;;;;;12.10;8.75;;;11.60;99.90;;;;;;5074106;28;20020;-71
2021/04/29 04:02:10;;;;;;;11.07;7.82;;;11.60;99.90;;;;;;5073525;28;20107;-71
2021/04/29 04:04:36;;;;;;;11.40;8.88;;;11.60;99.90;;;;;;5074727;28;20016;-71
2021/04/29 04:07:01;;;;;;;11.10;7.93;;;11.60;99.90;;;;;;5073290;28;20074;-71
2021/04/29 04:09:27;;;;;;;11.05;8.25;;;11.60;99.90;;;;;;5074605;28;20020;-71
2021/04/29 04:11:52;;;;;;;11.18;8.30;;;11.60;99.90;;;;;;5074343;28;20128;-71
2021/04/29 04:14:18;;;;;;;13.23;9.13;;;11.60;99.90;;;;;;5074538;28;20035;-71
2021/04/29 04:16:43;;;;;;;11.48;8.77;;;11.70;99.90;;;;;;5073119;28;20095;-71
2021/04/29 04:19:09;;;;;;;11.57;8.30;;;11.70;99.90;;;;;;5074477;28;20525;-71
2021/04/29 04:21:35;;;;;;;10.52;8.57;;;11.60;99.90;;;;;;5074085;28;20044;-71
2021/04/29 04:24:00;;;;;;;14.50;8.75;;;11.60;99.90;;;;;;5074363;28;20024;-71
2021/04/29 04:26:26;;;;;;;13.57;9.32;;;11.60;99.90;;;;;;5073141;28;20036;-71
2021/04/29 04:28:51;;;;;;;13.02;9.25;;;11.60;99.90;;;;;;5074289;28;20027;-71
2021/04/29 04:31:17;;;;;;;15.80;9.27;;;11.60;99.90;;;;;;5073071;28;20493;-71
2021/04/29 04:33:42;;;;;;;11.82;9.40;;;11.60;99.90;;;;;;5074186;28;20024;-71
2021/04/29 04:36:08;;;;;;;14.77;10.25;;;11.50;99.90;;;;;;5074135;28;20024;-71
2021/04/29 04:38:34;;;;;;;12.70;9.48;;;11.50;99.90;;;;;;5074121;28;20107;-71
2021/04/29 04:40:59;;;;;;;17.13;11.57;;;11.50;99.90;;;;;;5072836;28;20074;-71
2021/04/29 04:43:25;;;;;;;16.35;10.95;;;11.50;99.90;;;;;;5072852;28;20032;-71
2021/04/29 04:45:51;;;;;;;12.88;9.80;;;11.40;99.90;;;;;;5073018;28;20024;-71
2021/04/29 04:48:17;;;;;;;12.73;10.20;;;11.40;99.90;;;;;;5074231;28;20051;-71
2021/04/29 04:50:43;;;;;;;13.93;11.07;;;11.40;99.90;;;;;;5072537;28;20019;-71
2021/04/29 04:53:09;;;;;;;14.13;11.25;;;11.40;99.90;;;;;;5073643;28;20028;-71
2021/04/29 04:55:35;;;;;;;13.10;10.23;;;11.40;99.90;;;;;;5072328;28;20056;-71
2021/04/29 04:58:01;;;;;;;14.77;11.10;;;11.40;99.90;;;;;;5073078;28;20033;-71
2021/04/29 05:00:27;;;;;;;13.70;11.57;;;11.40;99.90;;;;;;5073625;28;20397;-71
2021/04/29 05:02:52;;;;;;;17.65;11.20;;;11.40;99.90;;;;;;5072450;28;20020;-71
2021/04/29 05:05:18;;;;;;;15.05;10.38;;;11.40;99.90;;;;;;5073614;28;20038;-71
2021/04/29 05:07:43;;;;;;;12.13;10.43;;;11.40;99.90;;;;;;5073651;28;20017;-71
2021/04/29 05:10:09;;;;;;;17.70;10.00;;;11.40;99.90;;;;;;5073452;28;20100;-71
2021/04/29 05:12:36;;;;;;;17.25;9.82;;;11.40;99.90;;;;;;5073694;28;20025;-71
2021/04/29 05:15:02;;;;;;;12.98;10.38;;;11.40;99.90;;;;;;5072278;28;20488;-71
2021/04/29 05:17:27;;;;;;;12.38;9.65;;;11.40;99.90;;;;;;5073642;28;20107;-71
2021/04/29 05:19:53;;;;;;;17.40;9.88;;;11.50;99.90;;;;;;5073638;28;20420;-71
2021/04/29 05:22:18;;;;;;;14.38;9.70;;;11.50;99.90;;;;;;5071886;28;20048;-71
2021/04/29 05:24:44;;;;;;;13.23;10.25;;;11.50;99.90;;;;;;5055352;28;20024;-71
2021/04/29 05:27:10;;;;;;;12.35;9.38;;;11.60;99.90;;;;;;5073511;28;20028;-71
2021/04/29 05:29:36;;;;;;;12.43;9.50;;;11.60;99.90;;;;;;5073579;28;20052;-71
2021/04/29 05:32:03;;;;;;;14.63;9.98;;;11.60;99.90;;;;;;5073536;28;20028;-71
2021/04/29 05:34:28;;;;;;;13.70;9.27;;;11.60;99.90;;;;;;5073433;28;20021;-71
2021/04/29 05:36:54;;;;;;;17.67;11.05;;;11.60;99.90;;;;;;5073481;28;20078;-71
2021/04/29 05:39:19;;;;;;;17.88;10.48;;;11.70;99.90;;;;;;5072719;28;20474;-71
2021/04/29 05:41:45;;;;;;;16.48;10.70;;;11.70;99.90;;;;;;5073332;28;20063;-71
2021/04/29 05:44:10;;;;;;;16.98;9.85;;;11.80;99.90;;;;;;5073407;28;20020;-71
2021/04/29 05:46:37;;;;;;;14.13;9.93;;;11.80;99.90;;;;;;5073329;28;20369;-71
2021/04/29 05:49:03;;;;;;;16.92;10.63;;;11.90;99.90;;;;;;5072912;28;20023;-71
2021/04/29 05:51:28;;;;;;;14.95;10.02;;;12.10;99.90;;;;;;5071964;28;20433;-71
2021/04/29 05:53:55;;;;;;;15.73;10.35;;;12.20;99.90;;;;;;5073215;28;20513;-71
2021/04/29 05:56:21;;;;;;;14.90;9.80;;;12.30;99.90;;;;;;5073194;28;20045;-71
2021/04/29 05:58:46;;;;;;;17.02;9.82;;;12.40;99.90;;;;;;5073227;28;20021;-71
2021/04/29 06:01:12;;;;;;;13.85;9.98;;;12.50;99.90;;;;;;5073167;28;20028;-71
2021/04/29 06:03:38;;;;;;;15.00;9.38;;;12.60;99.90;;;;;;5073143;28;20537;-72
2021/04/29 06:06:04;;;;;;;12.90;9.80;;;12.70;99.90;;;;;;5054928;28;20470;-71
2021/04/29 06:08:30;;;;;;;17.23;10.65;;;12.70;99.90;;;;;;5073953;28;20076;-71
2021/04/29 06:10:56;;;;;;;15.88;10.30;;;12.70;99.90;;;;;;5075759;28;20393;-71
2021/04/29 06:13:21;;;;;;;17.95;10.45;;;12.80;99.90;;;;;;5076568;28;20012;-71
2021/04/29 06:15:47;;;;;;;17.50;11.18;;;12.90;99.90;;;;;;5075969;28;20469;-71
2021/04/29 06:18:12;;;;;;;19.92;12.98;;;12.90;99.90;;;;;;5076640;28;20095;-70
2021/04/29 06:20:38;;;;;;;23.83;12.55;;;12.90;99.90;;;;;;5075336;28;20020;-71
2021/04/29 06:23:04;;;;;;;20.10;13.38;;;12.80;99.90;;;;;;5076634;28;20050;-71
2021/04/29 06:25:30;;;;;;;23.63;13.65;;;12.80;99.90;;;;;;5076358;28;20028;-71
2021/04/29 06:27:57;;;;;;;19.13;14.85;;;12.80;99.90;;;;;;5074809;28;20440;-71
2021/04/29 06:30:23;;;;;;;26.60;15.75;;;12.90;99.90;;;;;;5075288;28;20051;-71
2021/04/29 06:32:48;;;;;;;28.15;17.92;;;12.90;99.90;;;;;;5074553;28;20422;-71
2021/04/29 06:35:14;;;;;;;33.72;21.30;;;13.00;99.90;;;;;;5074664;28;20382;-71
2021/04/29 06:37:39;;;;;;;38.35;23.90;;;12.90;99.90;;;;;;5074521;28;20040;-71
2021/04/29 06:40:05;;;;;;;42.53;25.23;;;12.90;99.90;;;;;;5074150;28;20026;-71
2021/04/29 06:42:31;;;;;;;39.58;26.58;;;12.90;99.90;;;;;;5075544;28;20024;-71
2021/04/29 06:44:57;;;;;;;44.60;27.77;;;13.00;99.90;;;;;;5074747;28;20107;-71
2021/04/29 06:47:26;;;;;;;43.38;29.33;;;12.90;99.90;;;;;;5070264;28;20020;-71
2021/04/29 06:49:52;;;;;;;53.22;30.23;;;12.90;99.90;;;;;;5073368;28;20041;-71
2021/04/29 06:52:20;;;;;;;43.40;28.33;;;13.10;99.90;;;;;;5073033;28;20114;-71
2021/04/29 06:54:45;;;;;;;45.05;28.55;;;13.20;99.90;;;;;;5074778;28;20469;-71
2021/04/29 06:57:11;;;;;;;43.30;27.98;;;13.30;99.90;;;;;;5074582;28;20086;-71
2021/04/29 06:59:36;;;;;;;45.35;28.45;;;13.80;99.90;;;;;;5074038;28;20056;-71
2021/04/29 07:02:02;;;;;;;42.20;27.15;;;14.00;99.90;;;;;;5072589;28;20032;-71
2021/04/29 07:04:28;;;;;;;47.90;27.90;;;14.20;99.90;;;;;;5072760;28;20019;-71
2021/04/29 07:06:53;;;;;;;48.47;28.95;;;14.90;99.90;;;;;;5074281;28;20529;-71
2021/04/29 07:09:19;;;;;;;40.05;27.25;;;15.30;99.90;;;;;;5073533;28;20021;-71
2021/04/29 07:11:44;;;;;;;37.53;26.63;;;15.70;99.90;;;;;;5072937;28;20028;-71
2021/04/29 07:14:10;;;;;;;43.83;26.35;;;16.50;99.90;;;;;;5073978;28;20389;-71
2021/04/29 07:16:35;;;;;;;41.65;28.83;;;17.10;99.90;;;;;;5074864;28;20040;-71
2021/04/29 07:19:01;;;;;;;39.90;26.48;;;17.70;99.90;;;;;;5074794;28;20028;-71
2021/04/29 07:21:27;;;;;;;39.90;26.95;;;17.60;99.90;;;;;;5074680;28;20049;-71
2021/04/29 07:23:52;;;;;;;40.45;28.08;;;17.50;99.90;;;;;;5074728;28;20502;-71
2021/04/29 07:26:18;;;;;;;37.72;27.80;;;17.60;99.90;;;;;;5072947;28;20536;-71
2021/04/29 07:28:44;;;;;;;40.53;28.50;;;16.90;99.90;;;;;;5073173;28;20025;-71
2021/04/29 07:31:11;;;;;;;44.40;29.40;;;16.70;99.90;;;;;;5073922;28;20017;-71
2021/04/29 07:33:37;;;;;;;44.10;29.95;;;16.70;99.90;;;;;;5074562;28;20039;-71
2021/04/29 07:36:03;;;;;;;45.55;30.50;;;16.70;99.90;;;;;;5069010;28;20470;-71
2021/04/29 07:38:29;;;;;;;46.20;30.60;;;15.90;99.90;;;;;;5074485;28;20020;-71
2021/04/29 07:40:54;;;;;;;45.38;29.38;;;15.40;99.90;;;;;;5056737;28;20023;-71
2021/04/29 07:43:20;;;;;;;50.78;31.67;;;15.30;99.90;;;;;;5074512;28;20078;-71
2021/04/29 07:45:46;;;;;;;47.53;30.70;;;15.70;99.90;;;;;;5072807;28;20472;-71
2021/04/29 07:48:11;;;;;;;55.90;31.42;;;16.90;99.90;;;;;;5074241;28;20028;-71
2021/04/29 07:50:37;;;;;;;42.83;28.95;;;17.70;99.90;;;;;;5073764;28;20382;-71
2021/04/29 07:53:03;;;;;;;53.97;29.85;;;17.70;99.90;;;;;;5073981;28;20123;-71
2021/04/29 07:55:29;;;;;;;42.95;28.50;;;17.50;99.90;;;;;;5073450;28;20039;-71
2021/04/29 07:57:55;;;;;;;41.13;27.25;;;17.90;99.90;;;;;;5073742;28;20035;-71
2021/04/29 08:00:31;;;;;;;43.60;29.95;;;18.20;99.90;;;;;;5073454;28;20020;-71
2021/04/29 08:02:56;;;;;;;47.67;28.58;;;18.50;99.80;;;;;;5073885;28;20020;-71
2021/04/29 08:05:22;;;;;;;38.72;28.95;;;18.10;99.80;;;;;;5073952;28;20445;-71
2021/04/29 08:07:48;;;;;;;46.80;28.77;;;18.60;98.50;;;;;;5073609;28;20025;-71
2021/04/29 08:10:14;;;;;;;41.38;29.40;;;17.90;98.40;;;;;;5073456;28;20104;-70
2021/04/29 08:12:40;;;;;;;39.15;27.23;;;17.50;99.90;;;;;;5073968;28;20104;-71
2021/04/29 08:15:07;;;;;;;39.72;28.95;;;17.80;99.90;;;;;;5072464;28;20554;-71
2021/04/29 08:17:33;;;;;;;43.92;27.63;;;18.40;98.10;;;;;;5072894;28;20033;-71
2021/04/29 08:19:59;;;;;;;37.40;27.92;;;18.60;96.70;;;;;;5072459;28;20499;-71
2021/04/29 08:22:26;;;;;;;40.53;26.80;;;18.80;95.20;;;;;;5073101;28;20059;-71
2021/04/29 08:24:55;;;;;;;42.95;29.10;;;17.60;97.20;;;;;;5072510;28;20063;-71
2021/04/29 08:27:21;;;;;;;41.30;29.10;;;18.30;99.10;;;;;;5073544;28;20048;-71
2021/04/29 08:29:47;;;;;;;42.33;29.35;;;18.70;95.50;;;;;;5072183;28;20067;-71
2021/04/29 08:32:12;;;;;;;42.25;28.13;;;19.00;95.10;;;;;;5073101;28;20051;-71
2021/04/29 08:34:38;;;;;;;34.40;26.00;;;19.30;93.80;;;;;;5073368;28;20103;-71
2021/04/29 08:37:04;;;;;;;41.67;28.48;;;18.50;93.00;;;;;;5073028;28;20454;-71
2021/04/29 08:39:29;;;;;;;46.15;29.27;;;18.80;94.00;;;;;;5072978;28;20035;-71
2021/04/29 08:41:55;;;;;;;44.10;29.63;;;18.40;94.30;;;;;;5072860;28;20028;-71
2021/04/29 08:44:21;;;;;;;41.30;29.10;;;18.30;95.00;;;;;;5070888;28;20035;-71
2021/04/29 08:46:46;;;;;;;38.50;29.08;;;18.50;94.70;;;;;;5073252;28;20017;-71
2021/04/29 08:49:15;;;;;;;48.13;28.83;;;18.60;94.50;;;;;;5072641;28;20491;-71
2021/04/29 08:51:41;;;;;;;38.28;27.95;;;19.00;94.10;;;;;;5071255;28;20048;-71
2021/04/29 08:54:06;;;;;;;41.15;27.88;;;18.90;92.90;;;;;;5072955;28;20067;-71
2021/04/29 08:56:32;;;;;;;38.33;29.63;;;18.00;94.20;;;;;;5071266;28;20033;-71
2021/04/29 08:58:59;;;;;;;35.40;29.13;;;17.60;96.10;;;;;;5071608;28;20032;-71
2021/04/29 09:01:25;;;;;;;43.25;30.95;;;17.60;96.00;;;;;;5071925;28;20115;-71
2021/04/29 09:03:51;;;;;;;46.13;31.05;;;17.80;97.10;;;;;;5071120;28;20037;-71
2021/04/29 09:06:29;;;;;;;46.80;31.92;;;17.30;97.70;;;;;;5072416;28;20100;-71
2021/04/29 09:08:58;;;;;;;54.40;32.10;;;18.00;97.70;;;;;;5073066;28;20541;-71
2021/04/29 09:11:24;;;;;;;44.65;31.08;;;18.30;96.20;;;;;;5072800;28;20036;-71
2021/04/29 09:13:55;;;;;;;48.95;31.30;;;18.40;95.60;;;;;;5072652;28;20040;-71
2021/04/29 09:16:20;;;;;;;44.97;30.58;;;19.20;93.50;;;;;;5071849;28;20028;-71
2021/04/29 09:18:48;;;;;;;44.58;31.75;;;19.00;91.90;;;;;;5072671;28;20037;-71
2021/04/29 09:21:14;;;;;;;46.80;31.38;;;18.80;93.60;;;;;;5071799;28;20024;-71
2021/04/29 09:23:44;;;;;;;44.45;32.63;;;18.90;93.90;;;;;;5072754;28;20020;-71
2021/04/29 09:26:11;;;;;;;40.55;32.50;;;18.70;93.10;;;;;;5072076;28;20050;-71
2021/04/29 09:28:41;;;;;;;47.13;34.15;;;17.20;97.50;;;;;;5072346;28;20095;-71
2021/04/29 09:31:12;;;;;;;47.35;34.38;;;16.70;99.60;;;;;;5071530;28;20374;-71
2021/04/29 09:33:40;;;;;;;49.72;33.85;;;17.00;99.40;;;;;;5072680;28;20044;-71
2021/04/29 09:36:08;;;;;;;47.50;33.70;;;17.30;99.90;;;;;;5071740;28;20021;-71
2021/04/29 09:38:37;;;;;;;53.63;34.10;;;18.40;96.80;;;;;;5072676;28;20150;-71
2021/04/29 09:41:04;;;;;;;46.88;33.88;;;18.80;95.40;;;;;;5061983;28;20113;-71
2021/04/29 09:43:30;;;;;;;54.15;36.42;;;19.30;91.80;;;;;;5073978;28;20506;-71
2021/04/29 09:45:57;;;;;;;56.10;38.45;;;18.40;93.60;;;;;;5075764;28;20048;-71
2021/04/29 09:48:34;;;;;;;53.17;37.55;;;17.10;96.90;;;;;;5075367;28;20028;-71
2021/04/29 09:50:59;;;;;;;57.30;38.63;;;16.50;99.80;;;;;;5074303;28;20083;-71
2021/04/29 09:53:25;;;;;;;55.00;38.95;;;16.70;99.90;;;;;;5075200;28;20185;-71
2021/04/29 09:55:51;;;;;;;52.40;38.78;;;17.40;98.80;;;;;;5075284;28;20074;-71
2021/04/29 09:58:19;;;;;;;55.13;39.28;;;16.70;99.30;;;;;;5075096;28;20036;-71
2021/04/29 10:00:48;;;;;;;59.50;40.78;;;15.80;99.90;;;;;;5076489;28;20020;-71
2021/04/29 10:03:14;;;;;;;62.15;40.67;;;15.30;99.90;;;;;;5075723;28;20497;-71
2021/04/29 10:05:41;;;;;;;67.80;42.03;;;15.00;99.90;;;;;;5076510;28;20035;-71
2021/04/29 10:08:10;;;;;;;61.00;41.75;;;15.30;99.90;;;;;;5075423;28;20016;-71
2021/04/29 10:10:38;;;;;;;64.00;41.65;;;15.40;99.90;;;;;;5076246;28;20028;-71
2021/04/29 10:13:06;;;;;;;55.60;36.55;;;16.50;99.90;;;;;;5075516;28;20385;-71
2021/04/29 10:15:38;;;;;;;56.33;35.80;;;16.90;99.90;;;;;;5075826;28;20024;-71
2021/04/29 10:18:06;;;;;;;56.55;35.60;;;16.50;99.80;;;;;;5075822;28;20036;-71
2021/04/29 10:20:34;;;;;;;60.58;37.15;;;15.20;99.90;;;;;;5075675;28;20036;-71
2021/04/29 10:23:00;;;;;;;56.95;39.30;;;15.30;99.90;;;;;;5075472;28;20079;-71
2021/04/29 10:25:30;;;;;;;60.03;36.53;;;16.90;99.90;;;;;;5072077;28;20060;-71
2021/04/29 10:27:57;;;;;;;45.80;31.48;;;17.80;98.80;;;;;;5055758;28;20108;-71
2021/04/29 10:30:38;;;;;;;49.30;34.15;;;17.90;94.50;;;;;;5073591;28;20032;-71
2021/04/29 10:33:20;;;;;;;42.05;30.20;;;18.40;91.40;;;;;;5057552;28;20024;-71
2021/04/29 10:35:56;;;;;;;46.92;33.83;;;18.80;91.20;;;;;;5055444;28;20532;-71
2021/04/29 10:38:28;;;;;;;44.25;28.90;;;19.20;87.70;;;;;;5056300;28;20367;-71
2021/04/29 10:40:53;;;;;;;47.30;31.48;;;18.90;84.00;;;;;;5075335;28;20024;-71
2021/04/29 10:43:37;;;;;;;48.45;32.67;;;18.60;88.70;;;;;;5074300;28;20039;-71
2021/04/29 10:46:05;;;;;;;;;;;19.20;88.20;;;;;;5075699;28;20028;-71
2021/04/29 10:48:34;;;;;;;43.38;29.40;;;18.80;80.80;;;;;;5074892;28;19908;-71
2021/04/29 10:51:15;;;;;;;47.40;33.10;;;17.60;87.40;;;;;;5074558;28;20013;-71
2021/04/29 10:53:41;;;;;;;54.90;36.40;;;17.20;93.60;;;;;;5074111;28;20085;-71
2021/04/29 10:56:13;;;;;;;49.03;35.45;;;17.00;95.10;;;;;;5073228;28;20489;-71
2021/04/29 10:58:39;;;;;;;43.63;28.70;;;16.40;97.40;;;;;;5073773;28;20028;-71
2021/04/29 11:01:15;;;;;;;44.63;27.60;;;17.10;95.30;;;;;;5073907;28;20035;-71
2021/04/29 11:03:46;;;;;;;35.65;25.63;;;17.20;91.90;;;;;;5073636;28;20090;-71
2021/04/29 11:06:26;;;;;;;45.92;28.15;;;17.20;91.00;;;;;;5074172;28;20027;-71
2021/04/29 11:08:53;;;;;;;36.92;22.80;;;17.40;92.90;;;;;;5074487;28;20493;-71
2021/04/29 11:11:29;;;;;;;42.90;27.85;;;17.30;89.20;;;;;;5073680;28;20394;-71
2021/04/29 11:14:00;;;;;;;40.70;24.65;;;16.80;91.80;;;;;;5074030;28;20112;-71
2021/04/29 11:16:26;;;;;;;42.47;20.42;;;17.20;88.40;;;;;;5074697;28;20040;-70
2021/04/29 11:18:51;;;;;;;38.67;23.77;;;17.40;83.30;;;;;;5073403;28;20019;-71
2021/04/29 11:21:27;;;;;;;32.42;21.40;;;17.20;83.30;;;;;;5071704;28;20028;-71
2021/04/29 11:23:53;;;;;;;36.03;22.88;;;16.70;86.50;;;;;;5074099;28;20025;-71
2021/04/29 11:26:20;;;;;;;36.88;24.55;;;16.40;88.00;;;;;;5073080;28;20102;-70
2021/04/29 11:28:48;;;;;;;34.00;23.52;;;16.40;91.20;;;;;;5089870;28;20093;-71
2021/04/29 11:31:17;;;;;;;28.35;22.10;;;16.80;88.70;;;;;;5072592;28;20358;-70
2021/04/29 11:33:46;;;;;;;36.28;22.05;;;16.90;87.40;;;;;;5074007;28;20048;-71
2021/04/29 11:36:17;;;;;;;38.25;24.40;;;17.00;82.60;;;;;;5054419;28;20029;-71
2021/04/29 11:39:01;;;;;;;38.70;22.40;;;17.30;87.40;;;;;;5053505;28;20017;-71
2021/04/29 11:41:29;;;;;;;29.75;21.52;;;17.50;83.30;;;;;;5055217;28;20028;-71
2021/04/29 11:44:05;;;;;;;36.08;21.00;;;17.50;78.40;;;;;;5073069;28;20021;-71
2021/04/29 11:46:33;;;;;;;31.58;19.02;;;17.10;81.20;;;;;;5053600;28;20029;-71
2021/04/29 11:49:03;;;;;;;25.00;16.33;;;17.30;77.80;;;;;;5054238;28;20040;-71
2021/04/29 11:51:31;;;;;;;31.85;22.67;;;17.20;75.80;;;;;;5073902;28;20025;-71
2021/04/29 11:54:03;;;;;;;41.20;24.83;;;17.20;84.90;;;;;;5072406;28;20016;-70
2021/04/29 11:56:41;;;;;;;39.67;24.63;;;17.10;87.30;;;;;;5056268;28;20021;-71
2021/04/29 11:59:08;;;;;;;33.38;24.67;;;17.00;89.20;;;;;;5053529;28;20032;-71
2021/04/29 12:01:35;;;;;;;37.38;26.02;;;16.80;90.10;;;;;;5073444;28;20028;-70
2021/04/29 12:04:14;;;;;;;38.17;26.65;;;16.70;91.00;;;;;;5073527;28;20532;-71
2021/04/29 12:09:26;;;;;;;40.70;24.80;;;16.20;92.00;;;;;;5088843;28;20366;-71
2021/04/29 12:11:54;;;;;;;48.42;28.98;;;16.20;93.30;;;;;;5080946;28;20108;-71
2021/04/29 12:14:22;;;;;;;39.42;27.77;;;16.00;94.10;;;;;;5081061;28;20021;-71
2021/04/29 12:16:49;;;;;;;42.80;28.20;;;15.80;95.70;;;;;;5070053;28;20489;-71
2021/04/29 12:19:19;;;;;;;44.85;26.25;;;15.70;96.60;;;;;;5074618;28;20059;-71
2021/04/29 12:21:44;;;;;;;39.03;26.95;;;15.50;96.70;;;;;;5069625;28;20031;-71
2021/04/29 12:24:10;;;;;;;39.55;23.83;;;15.40;97.40;;;;;;5070985;28;20111;-71
2021/04/29 12:26:40;;;;;;;38.05;26.40;;;15.20;97.00;;;;;;5070381;28;20083;-71
2021/04/29 12:29:08;;;;;;;36.70;24.65;;;15.50;97.70;;;;;;5084364;28;20028;-71
2021/04/29 12:31:36;;;;;;;39.67;27.80;;;16.10;95.80;;;;;;5105448;28;20025;-71
2021/04/29 12:34:07;;;;;;;40.88;24.55;;;16.30;94.60;;;;;;5076235;28;20077;-71
2021/04/29 12:36:35;;;;;;;31.77;20.00;;;16.30;94.40;;;;;;5084531;28;20048;-71
2021/04/29 12:39:12;;;;;;;25.80;15.55;;;15.70;93.30;;;;;;5083213;28;20474;-71